createdAt,value
2022-12-23T00:00:30.475Z,10.02
2022-12-23T00:02:56.916Z,10.05
2022-12-23T00:05:23.187Z,10.02
2022-12-23T00:07:49.373Z,9.99
2022-12-23T00:10:15.540Z,10.01
2022-12-23T00:12:41.737Z,10.05
2022-12-23T00:15:07.860Z,10.07
2022-12-23T00:17:34.004Z,10.07
2022-12-23T00:20:00.208Z,10.06
2022-12-23T00:22:26.396Z,10.02
2022-12-23T00:24:52.593Z,10.10
2022-12-23T00:27:18.750Z,10.12
2022-12-23T00:29:44.918Z,10.09
2022-12-23T00:32:11.153Z,10.05
2022-12-23T00:34:37.308Z,10.09
2022-12-23T00:37:03.479Z,10.08
2022-12-23T00:39:29.674Z,10.11
2022-12-23T00:41:55.798Z,10.07
2022-12-23T00:44:22.009Z,10.06
2022-12-23T00:46:48.213Z,10.09
2022-12-23T00:49:14.408Z,10.08
2022-12-23T00:51:40.587Z,10.14
2022-12-23T00:54:06.771Z,10.18
2022-12-23T00:56:32.958Z,10.13
2022-12-23T00:58:59.120Z,10.17
2022-12-23T01:01:25.411Z,10.16
2022-12-23T01:03:51.568Z,10.15
2022-12-23T01:06:17.736Z,10.17
2022-12-23T01:08:43.859Z,10.17
2022-12-23T01:11:09.981Z,10.20
2022-12-23T01:13:36.563Z,10.21
2022-12-23T01:16:02.725Z,10.24
2022-12-23T01:18:28.965Z,10.20
2022-12-23T01:20:55.189Z,10.21
2022-12-23T01:23:21.336Z,10.16
2022-12-23T01:25:47.688Z,10.18
2022-12-23T01:28:13.884Z,10.23
2022-12-23T01:30:40.020Z,10.19
2022-12-23T01:33:06.151Z,10.24
2022-12-23T01:35:32.474Z,10.23
2022-12-23T01:37:58.601Z,10.23
2022-12-23T01:40:24.796Z,10.23
2022-12-23T01:42:50.990Z,10.21
2022-12-23T01:45:17.950Z,10.19
2022-12-23T01:47:44.147Z,10.17
2022-12-23T01:50:10.287Z,10.18
2022-12-23T01:52:36.419Z,10.18
2022-12-23T01:55:02.571Z,10.24
2022-12-23T01:57:28.703Z,10.24
2022-12-23T01:59:54.860Z,10.30
2022-12-23T02:02:21.184Z,10.26
2022-12-23T02:04:47.488Z,10.36
2022-12-23T02:07:13.652Z,10.35
2022-12-23T02:09:39.800Z,10.29
2022-12-23T02:12:05.926Z,10.40
2022-12-23T02:14:32.077Z,10.39
2022-12-23T02:16:58.287Z,10.38
2022-12-23T02:19:24.471Z,10.39
2022-12-23T02:21:50.600Z,10.41
2022-12-23T02:24:16.828Z,10.51
2022-12-23T02:26:42.959Z,10.49
2022-12-23T02:29:09.123Z,10.54
2022-12-23T02:31:35.307Z,10.51
2022-12-23T02:34:01.477Z,10.53
2022-12-23T02:36:27.647Z,10.56
2022-12-23T02:38:53.831Z,10.55
2022-12-23T02:41:20.026Z,10.57
2022-12-23T02:43:46.200Z,10.66
2022-12-23T02:46:12.461Z,10.64
2022-12-23T02:48:38.745Z,10.60
2022-12-23T02:51:04.886Z,10.60
2022-12-23T02:53:31.114Z,10.59
2022-12-23T02:55:57.343Z,10.58
2022-12-23T02:58:23.527Z,10.59
2022-12-23T03:00:49.731Z,10.60
2022-12-23T03:03:16.047Z,10.60
2022-12-23T03:05:42.282Z,10.62
2022-12-23T03:08:08.413Z,10.68
2022-12-23T03:10:34.562Z,10.66
2022-12-23T03:13:00.758Z,10.61
2022-12-23T03:15:26.926Z,10.57
2022-12-23T03:17:53.074Z,10.61
2022-12-23T03:20:19.236Z,10.59
2022-12-23T03:22:45.393Z,10.59
2022-12-23T03:25:11.568Z,10.61
2022-12-23T03:27:37.731Z,10.62
2022-12-23T03:30:03.972Z,10.65
2022-12-23T03:32:30.156Z,10.68
2022-12-23T03:34:56.327Z,10.67
2022-12-23T03:37:22.483Z,10.67
2022-12-23T03:39:48.657Z,10.61
2022-12-23T03:42:14.797Z,10.62
2022-12-23T03:44:51.788Z,10.65
2022-12-23T03:47:27.172Z,10.62
2022-12-23T03:49:53.394Z,10.60
2022-12-23T03:52:21.674Z,10.57
2022-12-23T03:54:48.139Z,10.50
2022-12-23T03:57:14.310Z,10.44
2022-12-23T03:59:40.483Z,10.40
2022-12-23T04:02:06.744Z,10.49
2022-12-23T04:04:32.943Z,10.45
2022-12-23T04:06:59.132Z,10.51
2022-12-23T04:09:25.350Z,10.50
2022-12-23T04:11:51.508Z,10.48
2022-12-23T04:14:17.667Z,10.54
2022-12-23T04:16:43.818Z,10.59
2022-12-23T04:19:09.932Z,10.69
2022-12-23T04:21:36.120Z,10.67
2022-12-23T04:24:02.242Z,10.79
2022-12-23T04:26:28.357Z,10.76
2022-12-23T04:28:54.548Z,10.85
2022-12-23T04:31:20.728Z,10.89
2022-12-23T04:33:46.925Z,10.90
2022-12-23T04:36:13.130Z,10.90
2022-12-23T04:38:39.258Z,10.95
2022-12-23T04:41:05.421Z,10.88
2022-12-23T04:43:31.633Z,10.83
2022-12-23T04:45:57.771Z,10.85
2022-12-23T04:48:23.953Z,10.87
2022-12-23T04:50:50.122Z,10.82
2022-12-23T04:53:16.267Z,10.88
2022-12-23T04:55:42.405Z,10.88
2022-12-23T04:58:08.562Z,10.89
2022-12-23T05:00:39.494Z,10.89
2022-12-23T05:03:06.203Z,10.92
2022-12-23T05:05:33.558Z,11.03
2022-12-23T05:07:59.695Z,11.01
2022-12-23T05:10:25.896Z,11.02
2022-12-23T05:12:52.041Z,11.01
2022-12-23T05:15:18.308Z,11.05
2022-12-23T05:17:44.560Z,10.98
2022-12-23T05:20:10.737Z,10.97
2022-12-23T05:22:36.932Z,10.95
2022-12-23T05:25:03.126Z,11.01
2022-12-23T05:27:29.315Z,11.06
2022-12-23T05:29:55.477Z,11.09
2022-12-23T05:32:21.635Z,11.03
2022-12-23T05:34:47.735Z,11.05
2022-12-23T05:37:13.897Z,11.09
2022-12-23T05:39:40.081Z,11.03
2022-12-23T05:42:06.248Z,11.09
2022-12-23T05:44:32.463Z,11.03
2022-12-23T05:46:58.604Z,11.10
2022-12-23T05:49:24.760Z,11.07
2022-12-23T05:51:50.895Z,11.00
2022-12-23T05:54:17.086Z,11.07
2022-12-23T05:56:43.275Z,11.00
2022-12-23T05:59:09.432Z,10.98
2022-12-23T06:01:35.723Z,10.99
2022-12-23T06:04:01.984Z,11.07
2022-12-23T06:06:28.283Z,10.94
2022-12-23T06:08:59.345Z,10.80
2022-12-23T06:11:26.014Z,10.52
2022-12-23T06:13:52.194Z,10.36
2022-12-23T06:16:18.481Z,10.28
2022-12-23T06:18:44.655Z,10.21
2022-12-23T06:21:10.805Z,10.18
2022-12-23T06:23:36.959Z,10.14
2022-12-23T06:26:03.073Z,10.08
2022-12-23T06:28:29.287Z,9.97
2022-12-23T06:30:55.425Z,9.82
2022-12-23T06:33:21.557Z,9.91
2022-12-23T06:35:47.681Z,9.81
2022-12-23T06:38:13.867Z,9.82
2022-12-23T06:40:40.014Z,9.84
2022-12-23T06:43:06.172Z,9.87
2022-12-23T06:45:32.432Z,9.89
2022-12-23T06:47:58.596Z,9.86
2022-12-23T06:50:24.737Z,9.83
2022-12-23T06:52:50.943Z,9.75
2022-12-23T06:55:17.195Z,9.70
2022-12-23T06:57:43.355Z,9.67
2022-12-23T07:00:09.476Z,9.68
2022-12-23T07:02:35.775Z,9.70
2022-12-23T07:05:02.076Z,9.72
2022-12-23T07:07:28.308Z,9.69
2022-12-23T07:09:54.514Z,9.71
2022-12-23T07:12:20.618Z,9.77
2022-12-23T07:14:46.766Z,9.81
2022-12-23T07:17:13.037Z,9.89
2022-12-23T07:19:39.275Z,9.86
2022-12-23T07:22:05.448Z,9.88
2022-12-23T07:24:31.645Z,9.80
2022-12-23T07:26:57.901Z,9.75
2022-12-23T07:29:24.036Z,9.62
2022-12-23T07:31:50.270Z,9.51
2022-12-23T07:34:16.576Z,9.59
2022-12-23T07:36:42.754Z,9.57
2022-12-23T07:39:08.894Z,9.59
2022-12-23T07:41:35.095Z,9.66
2022-12-23T07:44:01.258Z,9.77
2022-12-23T07:46:27.594Z,9.85
2022-12-23T07:48:53.827Z,9.92
2022-12-23T07:51:20.020Z,9.97
2022-12-23T07:53:46.232Z,9.98
2022-12-23T07:56:12.370Z,10.01
2022-12-23T07:58:38.547Z,10.05
2022-12-23T08:01:04.767Z,10.07
2022-12-23T08:03:30.994Z,10.12
2022-12-23T08:05:57.197Z,10.15
2022-12-23T08:08:23.381Z,10.20
2022-12-23T08:10:49.548Z,10.24
2022-12-23T08:13:15.765Z,10.31
2022-12-23T08:15:42.040Z,10.31
2022-12-23T08:18:08.258Z,10.36
2022-12-23T08:20:34.423Z,10.38
2022-12-23T08:23:00.609Z,10.36
2022-12-23T08:25:26.794Z,10.37
2022-12-23T08:27:52.935Z,10.38
2022-12-23T08:30:19.186Z,10.40
2022-12-23T08:32:45.349Z,10.41
2022-12-23T08:35:11.539Z,10.41
2022-12-23T08:37:37.719Z,10.46
2022-12-23T08:40:03.902Z,10.60
2022-12-23T08:42:30.106Z,10.67
2022-12-23T08:44:56.247Z,10.75
2022-12-23T08:47:22.437Z,10.73
2022-12-23T08:49:48.618Z,10.88
2022-12-23T08:52:14.801Z,10.96
2022-12-23T08:54:40.983Z,11.13
2022-12-23T08:57:07.189Z,11.34
2022-12-23T08:59:33.364Z,11.38
2022-12-23T09:01:59.727Z,11.42
2022-12-23T09:04:26.082Z,11.48
2022-12-23T09:06:52.299Z,11.57
2022-12-23T09:09:18.482Z,11.61
2022-12-23T09:11:44.657Z,11.63
2022-12-23T09:14:10.792Z,11.65
2022-12-23T09:16:37.210Z,11.68
2022-12-23T09:19:03.471Z,11.73
2022-12-23T09:21:29.659Z,11.79
2022-12-23T09:23:55.786Z,11.77
2022-12-23T09:26:22.006Z,11.76
2022-12-23T09:28:48.329Z,11.78
2022-12-23T09:31:14.529Z,11.76
2022-12-23T09:33:40.717Z,11.78
2022-12-23T09:36:06.921Z,11.83
2022-12-23T09:38:33.058Z,11.82
2022-12-23T09:40:59.229Z,11.84
2022-12-23T09:43:25.467Z,11.83
2022-12-23T09:45:51.849Z,11.90
2022-12-23T09:48:18.045Z,11.94
2022-12-23T09:50:44.198Z,11.97
2022-12-23T09:53:10.321Z,11.92
2022-12-23T09:55:36.538Z,11.91
2022-12-23T09:58:02.885Z,12.02
2022-12-23T10:00:29.070Z,12.06
2022-12-23T10:02:55.443Z,12.00
2022-12-23T10:05:21.711Z,12.09
2022-12-23T10:07:47.885Z,12.10
2022-12-23T10:10:14.087Z,12.24
2022-12-23T10:12:40.695Z,12.29
2022-12-23T10:15:06.935Z,12.19
2022-12-23T10:17:33.108Z,12.21
2022-12-23T10:19:59.296Z,12.09
2022-12-23T10:22:25.478Z,12.11
2022-12-23T10:24:51.669Z,12.05
2022-12-23T10:27:17.886Z,11.99
2022-12-23T10:29:44.092Z,11.99
2022-12-23T10:32:10.324Z,12.01
2022-12-23T10:34:38.636Z,12.02
2022-12-23T10:37:05.149Z,12.11
2022-12-23T10:39:31.373Z,12.05
2022-12-23T10:41:57.519Z,12.00
2022-12-23T10:44:23.777Z,11.98
2022-12-23T10:46:50.070Z,12.04
2022-12-23T10:49:16.339Z,12.03
2022-12-23T10:51:42.558Z,12.00
2022-12-23T10:54:08.743Z,11.97
2022-12-23T10:56:34.910Z,11.95
2022-12-23T10:59:01.021Z,11.92
2022-12-23T11:01:27.825Z,12.00
2022-12-23T11:03:54.272Z,11.96
2022-12-23T11:06:20.530Z,11.91
2022-12-23T11:08:46.716Z,11.88
2022-12-23T11:11:12.932Z,11.84
2022-12-23T11:13:39.087Z,11.86
2022-12-23T11:16:05.332Z,11.88
2022-12-23T11:18:31.598Z,11.92
2022-12-23T11:20:57.752Z,11.80
2022-12-23T11:23:23.954Z,11.87
2022-12-23T11:25:50.093Z,11.82
2022-12-23T11:28:16.227Z,11.82
2022-12-23T11:30:42.411Z,11.79
2022-12-23T11:33:08.598Z,11.80
2022-12-23T11:35:34.835Z,11.77
2022-12-23T11:38:01.084Z,11.76
2022-12-23T11:40:28.251Z,11.77
2022-12-23T11:42:55.422Z,11.77
2022-12-23T11:45:21.702Z,11.81
2022-12-23T11:47:47.905Z,11.80
2022-12-23T11:50:14.119Z,11.82
2022-12-23T11:52:40.336Z,11.80
2022-12-23T11:55:06.597Z,11.80
2022-12-23T11:57:32.785Z,11.83
2022-12-23T11:59:58.917Z,11.78
2022-12-23T12:02:25.189Z,11.78
2022-12-23T12:04:51.414Z,11.80
2022-12-23T12:07:20.498Z,11.79
2022-12-23T12:09:46.695Z,11.80
2022-12-23T12:12:12.826Z,11.80
2022-12-23T12:14:39.010Z,11.83
2022-12-23T12:17:05.266Z,11.80
2022-12-23T12:19:31.415Z,11.82
2022-12-23T12:21:57.614Z,11.82
2022-12-23T12:24:23.785Z,11.82
2022-12-23T12:26:50.112Z,11.87
2022-12-23T12:29:16.321Z,11.90
2022-12-23T12:34:33.436Z,11.88
2022-12-23T12:37:02.378Z,11.91
2022-12-23T12:39:28.725Z,11.90
2022-12-23T12:42:01.826Z,11.90
2022-12-23T12:44:31.606Z,12.02
2022-12-23T12:47:03.990Z,11.96
2022-12-23T12:49:37.491Z,11.97
2022-12-23T12:52:03.723Z,12.01
2022-12-23T12:54:29.886Z,12.08
2022-12-23T12:56:56.071Z,12.08
2022-12-23T12:59:22.316Z,12.13
2022-12-23T13:01:48.564Z,12.16
2022-12-23T13:04:14.883Z,12.19
2022-12-23T13:06:41.126Z,12.17
2022-12-23T13:09:07.530Z,12.16
2022-12-23T13:11:33.823Z,12.15
2022-12-23T13:14:00.042Z,12.18
2022-12-23T13:16:26.271Z,12.19
2022-12-23T13:18:52.636Z,12.22
2022-12-23T13:21:18.819Z,12.27
2022-12-23T13:23:45.442Z,12.38
2022-12-23T13:26:11.733Z,12.39
2022-12-23T13:28:37.925Z,12.42
2022-12-23T13:31:04.135Z,12.40
2022-12-23T13:33:30.385Z,12.39
2022-12-23T13:36:04.756Z,12.41
2022-12-23T13:38:31.781Z,12.44
2022-12-23T13:40:57.964Z,12.45
2022-12-23T13:43:24.108Z,12.43
2022-12-23T13:45:50.293Z,12.43
2022-12-23T13:48:16.481Z,12.41
2022-12-23T13:50:42.635Z,12.50
2022-12-23T13:53:08.882Z,12.51
2022-12-23T13:55:35.058Z,12.51
2022-12-23T13:58:01.217Z,12.58
2022-12-23T14:00:27.370Z,12.59
2022-12-23T14:02:53.569Z,12.61
2022-12-23T14:05:20.012Z,12.60
2022-12-23T14:07:46.171Z,12.65
2022-12-23T14:10:12.384Z,12.69
2022-12-23T14:12:38.575Z,12.70
2022-12-23T14:15:04.734Z,12.71
2022-12-23T14:17:31.054Z,12.72
2022-12-23T14:19:57.260Z,12.72
2022-12-23T14:22:23.442Z,12.70
2022-12-23T14:24:49.640Z,12.77
2022-12-23T14:27:15.815Z,12.75
2022-12-23T14:29:42.034Z,12.80
2022-12-23T14:32:08.215Z,12.79
2022-12-23T14:34:34.369Z,12.80
2022-12-23T14:37:00.522Z,12.79
2022-12-23T14:39:26.730Z,12.86
2022-12-23T14:41:52.937Z,12.91
2022-12-23T14:44:19.127Z,12.89
2022-12-23T14:46:45.350Z,12.89
2022-12-23T14:49:37.543Z,12.94
2022-12-23T14:51:57.740Z,12.89
2022-12-23T14:54:23.873Z,12.91
2022-12-23T14:56:50.005Z,12.96
2022-12-23T14:59:16.204Z,12.93
2022-12-23T15:01:42.398Z,12.96
2022-12-23T15:04:08.624Z,12.98
2022-12-23T15:06:34.815Z,13.01
2022-12-23T15:09:01.063Z,13.00
2022-12-23T15:11:27.185Z,13.02
2022-12-23T15:13:53.344Z,13.02
2022-12-23T15:16:19.639Z,13.06
2022-12-23T15:18:51.811Z,13.00
2022-12-23T15:21:18.908Z,13.02
2022-12-23T15:23:45.076Z,12.96
2022-12-23T15:26:11.211Z,13.04
2022-12-23T15:28:37.388Z,12.99
2022-12-23T15:31:03.601Z,12.98
2022-12-23T15:34:01.712Z,13.03
2022-12-23T15:36:15.936Z,13.03
2022-12-23T15:38:42.144Z,12.96
2022-12-23T15:41:08.328Z,12.99
2022-12-23T15:43:34.453Z,13.04
2022-12-23T15:46:00.602Z,13.08
2022-12-23T15:48:26.773Z,13.11
2022-12-23T15:50:52.973Z,13.09
2022-12-23T15:53:19.194Z,13.11
2022-12-23T15:55:45.370Z,13.08
2022-12-23T15:58:11.529Z,13.07
2022-12-23T16:00:37.747Z,13.07
2022-12-23T16:03:06.708Z,13.09
2022-12-23T16:05:36.551Z,13.05
2022-12-23T16:08:02.753Z,13.07
2022-12-23T16:10:28.959Z,13.05
2022-12-23T16:12:55.191Z,13.03
2022-12-23T16:15:21.358Z,13.04
2022-12-23T16:17:47.529Z,13.07
2022-12-23T16:20:13.694Z,13.01
2022-12-23T16:22:39.809Z,13.04
2022-12-23T16:25:06.013Z,13.10
2022-12-23T16:27:32.177Z,13.06
2022-12-23T16:29:58.372Z,13.09
2022-12-23T16:32:24.601Z,13.09
2022-12-23T16:34:50.734Z,13.10
2022-12-23T16:37:16.884Z,13.12
2022-12-23T16:39:43.268Z,13.11
2022-12-23T16:42:09.391Z,13.14
2022-12-23T16:44:35.633Z,13.14
2022-12-23T16:47:01.875Z,13.12
2022-12-23T16:49:33.200Z,13.10
2022-12-23T16:51:59.988Z,13.10
2022-12-23T16:54:26.156Z,13.00
2022-12-23T16:56:52.315Z,13.02
2022-12-23T16:59:18.522Z,13.03
2022-12-23T17:01:44.842Z,13.03
2022-12-23T17:04:11.202Z,13.08
2022-12-23T17:06:37.392Z,13.02
2022-12-23T17:09:03.525Z,13.09
2022-12-23T17:11:29.684Z,13.04
2022-12-23T17:14:01.594Z,12.99
2022-12-23T17:16:31.164Z,12.97
2022-12-23T17:18:57.400Z,12.95
2022-12-23T17:21:23.525Z,12.96
2022-12-23T17:23:49.671Z,12.93
2022-12-23T17:29:06.193Z,12.98
2022-12-23T17:31:32.412Z,12.92
2022-12-23T17:33:58.778Z,12.87
2022-12-23T17:36:25.008Z,12.85
2022-12-23T17:38:51.195Z,12.87
2022-12-23T17:41:17.416Z,12.83
2022-12-23T17:43:43.636Z,12.87
2022-12-23T17:46:10.055Z,12.84
2022-12-23T17:48:36.307Z,12.85
2022-12-23T17:51:02.504Z,12.83
2022-12-23T17:53:28.645Z,12.83
2022-12-23T17:55:54.891Z,12.84
2022-12-23T17:58:21.065Z,12.96
2022-12-23T18:00:47.452Z,12.93
2022-12-23T18:03:16.491Z,12.98
2022-12-23T18:05:42.699Z,12.92
2022-12-23T18:08:08.822Z,12.85
2022-12-23T18:10:34.957Z,12.87
2022-12-23T18:13:01.245Z,13.08
2022-12-23T18:15:27.411Z,13.10
2022-12-23T18:17:53.622Z,13.08
2022-12-23T18:20:19.744Z,12.96
2022-12-23T18:22:45.917Z,13.15
2022-12-23T18:25:12.163Z,13.14
2022-12-23T18:27:38.295Z,13.11
2022-12-23T18:30:04.442Z,13.19
2022-12-23T18:32:30.675Z,13.28
2022-12-23T18:34:56.829Z,13.40
2022-12-23T18:37:22.984Z,13.38
2022-12-23T18:39:49.209Z,13.16
2022-12-23T18:42:15.384Z,13.20
2022-12-23T18:44:41.579Z,13.19
2022-12-23T18:47:07.823Z,12.97
2022-12-23T18:49:34.005Z,12.87
2022-12-23T18:52:00.178Z,12.83
2022-12-23T18:54:26.308Z,12.83
2022-12-23T18:56:52.522Z,12.92
2022-12-23T18:59:29.202Z,12.87
2022-12-23T19:01:56.398Z,12.76
2022-12-23T19:04:22.721Z,12.69
2022-12-23T19:06:51.791Z,12.66
2022-12-23T19:09:18.001Z,12.71
2022-12-23T19:11:44.130Z,12.58
2022-12-23T19:14:10.278Z,12.56
2022-12-23T19:16:36.482Z,12.65
2022-12-23T19:19:02.721Z,12.55
2022-12-23T19:21:28.895Z,12.44
2022-12-23T19:24:04.351Z,12.40
2022-12-23T19:29:21.639Z,12.65
2022-12-23T19:31:49.513Z,12.64
2022-12-23T19:34:19.678Z,12.63
2022-12-23T19:37:02.985Z,12.66
2022-12-23T19:42:21.538Z,12.52
2022-12-23T19:44:52.497Z,12.58
2022-12-23T19:47:18.771Z,12.53
2022-12-23T19:52:25.412Z,12.62
2022-12-23T19:54:51.597Z,12.35
2022-12-23T20:00:01.729Z,12.17
2022-12-23T20:02:31.072Z,12.08
2022-12-23T20:04:57.626Z,12.14
2022-12-23T20:07:41.619Z,12.16
2022-12-23T20:10:07.916Z,12.10
2022-12-23T20:12:34.129Z,12.02
2022-12-23T20:15:00.383Z,12.01
2022-12-23T20:17:31.044Z,12.03
2022-12-23T20:20:03.617Z,11.89
2022-12-23T20:22:30.025Z,11.89
2022-12-23T20:25:01.784Z,11.93
2022-12-23T20:27:28.743Z,12.04
2022-12-23T20:29:55.117Z,12.00
2022-12-23T20:32:21.435Z,12.11
2022-12-23T20:37:40.432Z,12.13
2022-12-23T20:40:06.646Z,12.30
2022-12-23T20:42:35.942Z,12.37
2022-12-23T20:45:06.823Z,12.65
2022-12-23T20:47:34.213Z,12.61
2022-12-23T20:50:03.529Z,12.43
2022-12-23T20:52:32.103Z,12.52
2022-12-23T20:54:58.246Z,12.43
2022-12-23T21:00:07.984Z,12.40
2022-12-23T21:02:34.190Z,12.39
2022-12-23T21:05:00.439Z,12.43
2022-12-23T21:07:26.625Z,12.38
2022-12-23T21:09:52.780Z,12.45
2022-12-23T21:12:18.915Z,12.54
2022-12-23T21:14:45.110Z,12.63
2022-12-23T21:17:11.255Z,12.59
2022-12-23T21:19:37.416Z,12.62
2022-12-23T21:22:03.547Z,12.57
2022-12-23T21:24:32.862Z,12.59
2022-12-23T21:26:59.008Z,12.67
2022-12-23T21:29:25.175Z,12.61
2022-12-23T21:31:51.396Z,12.65
2022-12-23T21:34:17.597Z,12.59
2022-12-23T21:36:43.812Z,12.44
2022-12-23T21:39:10.057Z,12.37
2022-12-23T21:41:38.571Z,12.65
2022-12-23T21:44:04.728Z,12.64
2022-12-23T21:46:30.966Z,12.56
2022-12-23T21:48:57.191Z,12.43
2022-12-23T21:51:24.523Z,12.36
2022-12-23T21:53:50.663Z,12.35
2022-12-23T21:56:16.813Z,12.44
2022-12-23T22:01:33.308Z,12.22
2022-12-23T22:04:02.574Z,12.03
2022-12-23T22:06:28.732Z,12.34
2022-12-23T22:08:54.909Z,12.28
2022-12-23T22:11:24.154Z,12.27
2022-12-23T22:14:03.332Z,12.15
2022-12-23T22:16:29.680Z,12.02
2022-12-23T22:18:58.765Z,12.19
2022-12-23T22:24:19.212Z,12.29
2022-12-23T22:29:35.394Z,12.36
2022-12-23T22:37:42.598Z,12.17
2022-12-23T22:40:09.752Z,11.90
2022-12-23T22:42:35.915Z,11.65
2022-12-23T22:45:02.127Z,11.43
2022-12-23T22:47:28.302Z,11.30
2022-12-23T22:49:54.571Z,11.21
2022-12-23T22:52:20.704Z,11.16
2022-12-23T22:54:46.880Z,11.06
2022-12-23T22:57:13.075Z,11.04
2022-12-23T22:59:39.243Z,10.99
2022-12-23T23:02:05.433Z,10.92
2022-12-23T23:04:31.628Z,10.95
2022-12-23T23:06:57.776Z,11.00
2022-12-23T23:09:23.925Z,11.00
2022-12-23T23:11:50.110Z,11.02
2022-12-23T23:14:16.357Z,10.97
2022-12-23T23:16:42.551Z,10.92
2022-12-23T23:19:08.768Z,10.98
2022-12-23T23:21:34.956Z,10.92
2022-12-23T23:24:01.164Z,10.86
2022-12-23T23:26:27.463Z,10.88
2022-12-23T23:28:53.793Z,10.78
2022-12-23T23:34:06.075Z,10.70
2022-12-23T23:36:32.272Z,10.66
2022-12-23T23:38:58.485Z,10.58
2022-12-23T23:41:24.701Z,10.62
2022-12-23T23:43:50.894Z,10.68
2022-12-23T23:46:17.215Z,10.73
2022-12-23T23:48:43.387Z,10.82
2022-12-23T23:51:09.548Z,10.72
2022-12-23T23:53:35.707Z,10.65
2022-12-23T23:56:01.901Z,10.60
2022-12-23T23:58:28.024Z,10.55
